createdAt,value
2019-06-27T00:00:13.380Z,949.13
2019-06-27T00:01:21.418Z,949.15
2019-06-27T00:02:29.536Z,949.17
2019-06-27T00:03:37.560Z,949.11
2019-06-27T00:04:45.654Z,949.11
2019-06-27T00:05:53.697Z,949.09
2019-06-27T00:07:01.885Z,949.12
2019-06-27T00:08:09.878Z,949.08
2019-06-27T00:09:17.896Z,949.10
2019-06-27T00:10:26.048Z,949.09
2019-06-27T00:11:34.072Z,949.09
2019-06-27T00:12:42.097Z,949.07
2019-06-27T00:13:50.184Z,949.10
2019-06-27T00:14:58.270Z,949.13
2019-06-27T00:16:06.289Z,949.12
2019-06-27T00:17:14.384Z,949.12
2019-06-27T00:18:22.581Z,949.14
2019-06-27T00:19:30.517Z,949.12
2019-06-27T00:20:38.598Z,949.07
2019-06-27T00:21:46.659Z,949.04
2019-06-27T00:22:54.736Z,949.09
2019-06-27T00:24:02.891Z,949.08
2019-06-27T00:25:10.877Z,949.10
2019-06-27T00:26:19.069Z,949.11
2019-06-27T00:27:27.028Z,949.10
2019-06-27T00:28:35.169Z,949.09
2019-06-27T00:29:43.245Z,949.11
2019-06-27T00:30:51.228Z,949.10
2019-06-27T00:31:59.298Z,949.10
2019-06-27T00:33:07.372Z,949.09
2019-06-27T00:34:15.416Z,949.09
2019-06-27T00:35:23.581Z,949.09
2019-06-27T00:36:31.568Z,949.12
2019-06-27T00:37:39.642Z,949.10
2019-06-27T00:38:47.701Z,949.07
2019-06-27T00:39:55.747Z,949.07
2019-06-27T00:41:03.899Z,949.05
2019-06-27T00:42:11.916Z,949.04
2019-06-27T00:43:19.993Z,949.05
2019-06-27T00:44:28.162Z,949.04
2019-06-27T00:45:36.127Z,949.02
2019-06-27T00:46:44.288Z,949.03
2019-06-27T00:47:52.269Z,949.07
2019-06-27T00:49:00.333Z,949.04
2019-06-27T00:50:08.397Z,949.07
2019-06-27T00:51:16.458Z,949.05
2019-06-27T00:52:24.635Z,949.11
2019-06-27T00:53:32.603Z,949.09
2019-06-27T00:54:40.672Z,949.07
2019-06-27T00:55:48.766Z,949.12
2019-06-27T00:57:09.607Z,949.10
2019-06-27T00:58:04.893Z,949.09
2019-06-27T00:59:12.965Z,949.07
2019-06-27T01:00:21.124Z,949.06
2019-06-27T01:01:29.131Z,949.06
2019-06-27T01:02:37.233Z,949.07
2019-06-27T01:03:45.251Z,949.08
2019-06-27T01:04:53.309Z,949.04
2019-06-27T01:06:01.381Z,949.06
2019-06-27T01:07:09.443Z,949.05
2019-06-27T01:08:17.618Z,949.02
2019-06-27T01:09:25.570Z,949.01
2019-06-27T01:10:33.650Z,949.03
2019-06-27T01:11:41.721Z,948.99
2019-06-27T01:12:49.785Z,948.97
2019-06-27T01:13:57.971Z,948.98
2019-06-27T01:15:05.911Z,948.99
2019-06-27T01:16:14.017Z,948.99
2019-06-27T01:17:22.167Z,948.98
2019-06-27T01:18:30.579Z,948.98
2019-06-27T01:19:38.339Z,948.99
2019-06-27T01:20:46.255Z,949.00
2019-06-27T01:21:54.365Z,948.98
2019-06-27T01:23:02.430Z,948.99
2019-06-27T01:24:10.483Z,948.97
2019-06-27T01:25:18.642Z,948.96
2019-06-27T01:26:26.645Z,948.98
2019-06-27T01:27:34.688Z,948.95
2019-06-27T01:28:42.759Z,948.92
2019-06-27T01:29:50.849Z,948.96
2019-06-27T01:30:58.900Z,948.92
2019-06-27T01:32:06.977Z,948.94
2019-06-27T01:33:15.034Z,948.94
2019-06-27T01:34:23.547Z,948.93
2019-06-27T01:35:31.274Z,948.92
2019-06-27T01:36:39.253Z,948.92
2019-06-27T01:37:47.312Z,948.95
2019-06-27T01:38:55.368Z,948.90
2019-06-27T01:40:03.452Z,948.90
2019-06-27T01:41:11.619Z,948.91
2019-06-27T01:42:19.589Z,948.91
2019-06-27T01:43:27.679Z,948.89
2019-06-27T01:44:35.718Z,948.92
2019-06-27T01:45:43.780Z,948.90
2019-06-27T01:46:51.966Z,948.91
2019-06-27T01:47:59.946Z,948.89
2019-06-27T01:49:08.048Z,948.88
2019-06-27T01:50:16.293Z,948.88
2019-06-27T01:51:24.374Z,948.87
2019-06-27T01:52:32.506Z,948.90
2019-06-27T01:53:40.523Z,948.84
2019-06-27T01:54:48.569Z,948.83
2019-06-27T01:55:56.625Z,948.83
2019-06-27T01:57:04.725Z,948.82
2019-06-27T01:58:12.858Z,948.83
2019-06-27T01:59:20.839Z,948.83
2019-06-27T02:00:28.943Z,948.83
2019-06-27T02:01:36.976Z,948.84
2019-06-27T02:02:45.052Z,948.80
2019-06-27T02:03:53.217Z,948.82
2019-06-27T02:05:01.194Z,948.81
2019-06-27T02:06:09.349Z,948.81
2019-06-27T02:07:17.329Z,948.82
2019-06-27T02:08:25.484Z,948.80
2019-06-27T02:09:33.687Z,948.79
2019-06-27T02:10:41.529Z,948.84
2019-06-27T02:11:49.597Z,948.84
2019-06-27T02:12:57.690Z,948.79
2019-06-27T02:14:05.726Z,948.86
2019-06-27T02:15:13.936Z,948.89
2019-06-27T02:16:21.881Z,948.83
2019-06-27T02:17:29.954Z,948.84
2019-06-27T02:18:38.073Z,948.85
2019-06-27T02:19:46.061Z,948.85
2019-06-27T02:20:54.247Z,948.89
2019-06-27T02:22:02.227Z,948.93
2019-06-27T02:23:10.293Z,948.92
2019-06-27T02:24:18.434Z,948.92
2019-06-27T02:25:26.492Z,948.94
2019-06-27T02:26:34.621Z,948.95
2019-06-27T02:27:42.571Z,948.90
2019-06-27T02:28:50.622Z,948.91
2019-06-27T02:29:58.703Z,948.91
2019-06-27T02:31:06.762Z,948.92
2019-06-27T02:32:14.941Z,948.93
2019-06-27T02:33:22.949Z,948.92
2019-06-27T02:34:30.977Z,948.95
2019-06-27T02:35:39.106Z,948.93
2019-06-27T02:36:47.110Z,948.95
2019-06-27T02:37:55.259Z,948.96
2019-06-27T02:39:03.259Z,948.98
2019-06-27T02:40:11.326Z,948.96
2019-06-27T02:41:19.500Z,949.00
2019-06-27T02:42:27.454Z,949.00
2019-06-27T02:43:35.545Z,949.00
2019-06-27T02:44:43.592Z,949.05
2019-06-27T02:45:51.668Z,949.04
2019-06-27T02:46:59.750Z,949.00
2019-06-27T02:48:07.808Z,949.03
2019-06-27T02:49:15.959Z,949.02
2019-06-27T02:50:23.942Z,949.04
2019-06-27T02:51:32.028Z,949.03
2019-06-27T02:52:40.091Z,949.03
2019-06-27T02:53:48.160Z,949.05
2019-06-27T02:54:56.289Z,949.01
2019-06-27T02:56:04.288Z,949.04
2019-06-27T02:57:12.450Z,949.00
2019-06-27T02:58:30.398Z,949.04
2019-06-27T02:59:28.493Z,949.04
2019-06-27T03:02:58.761Z,949.07
2019-06-27T03:05:20.645Z,949.05
2019-06-27T03:06:30.226Z,949.05
2019-06-27T03:08:50.589Z,949.06
2019-06-27T03:09:58.656Z,949.09
2019-06-27T03:11:06.815Z,949.07
2019-06-27T03:12:14.889Z,949.06
2019-06-27T03:13:22.858Z,949.06
2019-06-27T03:14:31.132Z,949.04
2019-06-27T03:15:39.303Z,949.06
2019-06-27T03:16:47.298Z,949.03
2019-06-27T03:17:55.349Z,949.04
2019-06-27T03:19:03.420Z,949.02
2019-06-27T03:20:11.481Z,949.04
2019-06-27T03:21:19.650Z,949.08
2019-06-27T03:22:27.614Z,949.09
2019-06-27T03:23:35.693Z,949.06
2019-06-27T03:24:43.750Z,949.07
2019-06-27T03:25:51.818Z,949.09
2019-06-27T03:26:59.991Z,949.08
2019-06-27T03:28:07.959Z,949.08
2019-06-27T03:29:20.137Z,949.10
2019-06-27T03:30:24.100Z,949.11
2019-06-27T03:31:32.205Z,949.17
2019-06-27T03:32:40.377Z,949.20
2019-06-27T03:33:48.304Z,949.22
2019-06-27T03:34:56.362Z,949.21
2019-06-27T03:36:04.507Z,949.26
2019-06-27T03:37:12.505Z,949.25
2019-06-27T03:38:20.682Z,949.24
2019-06-27T03:39:28.650Z,949.25
2019-06-27T03:40:36.702Z,949.27
2019-06-27T03:41:44.793Z,949.29
2019-06-27T03:42:52.852Z,949.26
2019-06-27T03:44:01.024Z,949.29
2019-06-27T03:45:13.651Z,949.30
2019-06-27T03:46:17.054Z,949.27
2019-06-27T03:47:25.122Z,949.32
2019-06-27T03:48:33.289Z,949.31
2019-06-27T03:49:41.368Z,949.35
2019-06-27T03:50:49.338Z,949.31
2019-06-27T03:51:57.401Z,949.32
2019-06-27T03:53:05.466Z,949.31
2019-06-27T03:54:13.550Z,949.33
2019-06-27T03:55:21.719Z,949.34
2019-06-27T03:56:29.670Z,949.32
2019-06-27T03:57:37.753Z,949.33
2019-06-27T03:58:45.788Z,949.36
2019-06-27T03:59:53.881Z,949.36
2019-06-27T04:01:02.071Z,949.40
2019-06-27T04:02:10.025Z,949.42
2019-06-27T04:03:18.106Z,949.43
2019-06-27T04:04:26.231Z,949.45
2019-06-27T04:05:34.327Z,949.47
2019-06-27T04:06:42.416Z,949.45
2019-06-27T04:07:50.374Z,949.39
2019-06-27T04:08:58.436Z,949.42
2019-06-27T04:10:06.500Z,949.38
2019-06-27T04:11:14.574Z,949.40
2019-06-27T04:12:22.735Z,949.39
2019-06-27T04:13:30.712Z,949.40
2019-06-27T04:14:38.783Z,949.39
2019-06-27T04:15:46.858Z,949.41
2019-06-27T04:16:54.913Z,949.39
2019-06-27T04:18:03.122Z,949.37
2019-06-27T04:19:11.067Z,949.38
2019-06-27T04:20:19.123Z,949.36
2019-06-27T04:21:27.246Z,949.35
2019-06-27T04:22:35.354Z,949.33
2019-06-27T04:23:43.417Z,949.28
2019-06-27T04:24:51.400Z,949.33
2019-06-27T04:25:59.487Z,949.28
2019-06-27T04:27:07.704Z,949.29
2019-06-27T04:28:15.600Z,949.28
2019-06-27T04:29:33.267Z,949.26
2019-06-27T04:30:31.759Z,949.26
2019-06-27T04:31:39.810Z,949.24
2019-06-27T04:32:47.883Z,949.29
2019-06-27T04:33:55.924Z,949.29
2019-06-27T04:35:04.067Z,949.25
2019-06-27T04:36:13.901Z,949.28
2019-06-27T04:37:20.161Z,949.33
2019-06-27T04:38:28.325Z,949.33
2019-06-27T04:39:36.754Z,949.28
2019-06-27T04:40:44.363Z,949.30
2019-06-27T04:41:52.436Z,949.33
2019-06-27T04:43:04.980Z,949.32
2019-06-27T04:44:08.577Z,949.35
2019-06-27T04:45:16.758Z,949.33
2019-06-27T04:46:24.706Z,949.34
2019-06-27T04:47:32.776Z,949.35
2019-06-27T04:48:40.858Z,949.36
2019-06-27T04:49:48.928Z,949.34
2019-06-27T04:50:57.085Z,949.36
2019-06-27T04:52:05.060Z,949.38
2019-06-27T04:53:13.758Z,949.40
2019-06-27T04:54:21.310Z,949.40
2019-06-27T04:55:29.882Z,949.36
2019-06-27T04:56:38.159Z,949.39
2019-06-27T04:57:45.398Z,949.35
2019-06-27T04:58:53.471Z,949.35
2019-06-27T05:00:01.563Z,949.38
2019-06-27T05:01:09.620Z,949.39
2019-06-27T05:02:17.734Z,949.36
2019-06-27T05:03:25.740Z,949.39
2019-06-27T05:04:33.817Z,949.38
2019-06-27T05:05:41.883Z,949.40
2019-06-27T05:06:49.965Z,949.38
2019-06-27T05:07:58.112Z,949.40
2019-06-27T05:09:06.083Z,949.41
2019-06-27T05:10:14.170Z,949.41
2019-06-27T05:11:22.276Z,949.43
2019-06-27T05:12:30.572Z,949.42
2019-06-27T05:13:38.427Z,949.47
2019-06-27T05:14:46.432Z,949.46
2019-06-27T05:15:54.506Z,949.46
2019-06-27T05:17:02.597Z,949.48
2019-06-27T05:18:10.652Z,949.49
2019-06-27T05:19:18.746Z,949.48
2019-06-27T05:20:26.779Z,949.49
2019-06-27T05:21:34.884Z,949.45
2019-06-27T05:22:42.935Z,949.50
2019-06-27T05:23:51.007Z,949.50
2019-06-27T05:24:59.076Z,949.52
2019-06-27T05:26:07.163Z,949.49
2019-06-27T05:27:15.214Z,949.49
2019-06-27T05:28:23.357Z,949.48
2019-06-27T05:29:31.448Z,949.45
2019-06-27T05:30:39.424Z,949.46
2019-06-27T05:31:47.519Z,949.47
2019-06-27T05:32:55.683Z,949.47
2019-06-27T05:34:03.620Z,949.49
2019-06-27T05:35:11.803Z,949.47
2019-06-27T05:36:19.770Z,949.50
2019-06-27T05:37:27.828Z,949.49
2019-06-27T05:38:35.880Z,949.52
2019-06-27T05:39:43.974Z,949.53
2019-06-27T05:40:52.146Z,949.51
2019-06-27T05:42:00.125Z,949.54
2019-06-27T05:43:08.184Z,949.56
2019-06-27T05:44:16.286Z,949.55
2019-06-27T05:45:24.418Z,949.54
2019-06-27T05:46:32.485Z,949.52
2019-06-27T05:47:40.463Z,949.50
2019-06-27T05:48:48.544Z,949.59
2019-06-27T05:49:56.595Z,949.53
2019-06-27T05:51:04.683Z,949.55
2019-06-27T05:52:12.859Z,949.58
2019-06-27T05:53:20.811Z,949.60
2019-06-27T05:54:28.886Z,949.57
2019-06-27T05:55:36.956Z,949.58
2019-06-27T05:56:45.035Z,949.57
2019-06-27T05:57:53.174Z,949.55
2019-06-27T05:59:01.173Z,949.55
2019-06-27T06:00:23.009Z,949.53
2019-06-27T06:01:17.389Z,949.52
2019-06-27T06:02:25.620Z,949.51
2019-06-27T06:03:33.550Z,949.49
2019-06-27T06:04:41.516Z,949.50
2019-06-27T06:05:49.586Z,949.50
2019-06-27T06:06:57.661Z,949.53
2019-06-27T06:08:05.714Z,949.50
2019-06-27T06:09:13.909Z,949.54
2019-06-27T06:10:21.890Z,949.53
2019-06-27T06:11:29.948Z,949.51
2019-06-27T06:12:38.009Z,949.53
2019-06-27T06:13:46.072Z,949.54
2019-06-27T06:14:54.267Z,949.52
2019-06-27T06:16:02.235Z,949.53
2019-06-27T06:17:10.292Z,949.55
2019-06-27T06:18:18.405Z,949.57
2019-06-27T06:19:26.875Z,949.63
2019-06-27T06:20:34.577Z,949.69
2019-06-27T06:21:42.583Z,949.64
2019-06-27T06:22:50.650Z,949.62
2019-06-27T06:23:58.717Z,949.62
2019-06-27T06:25:06.801Z,949.64
2019-06-27T06:26:14.966Z,949.68
2019-06-27T06:27:22.942Z,949.94
2019-06-27T06:28:31.046Z,949.89
2019-06-27T06:29:39.072Z,949.90
2019-06-27T06:30:47.160Z,949.90
2019-06-27T06:31:55.276Z,949.87
2019-06-27T06:33:03.316Z,949.85
2019-06-27T06:34:11.368Z,949.73
2019-06-27T06:35:19.488Z,949.60
2019-06-27T06:36:27.620Z,949.62
2019-06-27T06:37:35.662Z,949.97
2019-06-27T06:38:43.644Z,949.94
2019-06-27T06:39:51.722Z,949.71
2019-06-27T06:40:59.805Z,950.02
2019-06-27T06:42:07.877Z,950.07
2019-06-27T06:43:16.040Z,949.85
2019-06-27T06:44:24.012Z,949.74
2019-06-27T06:45:32.145Z,949.79
2019-06-27T06:46:40.186Z,949.74
2019-06-27T06:47:48.250Z,949.75
2019-06-27T06:48:56.374Z,949.73
2019-06-27T06:50:04.383Z,949.72
2019-06-27T06:51:12.447Z,949.75
2019-06-27T06:52:20.576Z,949.74
2019-06-27T06:53:28.695Z,949.74
2019-06-27T06:54:36.795Z,949.73
2019-06-27T06:55:44.741Z,949.76
2019-06-27T06:56:52.807Z,949.77
2019-06-27T06:58:00.880Z,949.79
2019-06-27T06:59:08.977Z,949.78
2019-06-27T07:00:17.080Z,949.77
2019-06-27T07:01:25.115Z,949.82
2019-06-27T07:02:33.172Z,949.79
2019-06-27T07:03:41.255Z,949.78
2019-06-27T07:04:49.437Z,949.79
2019-06-27T07:05:57.383Z,949.76
2019-06-27T07:07:05.452Z,949.78
2019-06-27T07:08:13.532Z,949.78
2019-06-27T07:09:21.703Z,949.80
2019-06-27T07:10:29.790Z,949.78
2019-06-27T07:11:37.762Z,949.78
2019-06-27T07:12:45.825Z,949.78
2019-06-27T07:13:53.900Z,949.81
2019-06-27T07:15:01.968Z,949.80
2019-06-27T07:16:10.148Z,949.80
2019-06-27T07:17:18.231Z,949.76
2019-06-27T07:18:26.183Z,949.79
2019-06-27T07:19:34.282Z,949.75
2019-06-27T07:20:42.356Z,949.78
2019-06-27T07:21:50.508Z,949.79
2019-06-27T07:22:58.493Z,949.81
2019-06-27T07:24:06.623Z,949.83
2019-06-27T07:25:14.639Z,949.79
2019-06-27T07:26:22.839Z,949.80
2019-06-27T07:27:30.906Z,949.81
2019-06-27T07:28:38.853Z,949.79
2019-06-27T07:29:46.928Z,949.78
2019-06-27T07:30:55.017Z,949.79
2019-06-27T07:32:03.105Z,949.78
2019-06-27T07:33:11.240Z,949.81
2019-06-27T07:34:19.237Z,949.80
2019-06-27T07:35:27.298Z,949.80
2019-06-27T07:36:36.358Z,949.77
2019-06-27T07:37:44.438Z,949.78
2019-06-27T07:38:52.611Z,949.74
2019-06-27T07:40:00.576Z,949.76
2019-06-27T07:42:32.595Z,949.76
2019-06-27T07:46:23.954Z,949.78
2019-06-27T07:47:17.111Z,949.78
2019-06-27T07:48:25.178Z,949.77
2019-06-27T07:49:33.431Z,949.79
2019-06-27T07:50:41.311Z,949.76
2019-06-27T07:51:49.386Z,949.73
2019-06-27T07:52:57.470Z,949.76
2019-06-27T07:54:05.540Z,949.74
2019-06-27T07:55:13.705Z,949.73
2019-06-27T07:56:21.688Z,949.74
2019-06-27T07:57:29.750Z,949.74
2019-06-27T07:58:37.841Z,949.77
2019-06-27T07:59:45.898Z,949.73
2019-06-27T08:00:54.431Z,949.72
2019-06-27T08:02:02.363Z,949.74
2019-06-27T08:04:18.201Z,949.78
2019-06-27T08:05:26.245Z,949.78
2019-06-27T08:06:34.452Z,949.80
2019-06-27T08:07:42.414Z,949.80
2019-06-27T08:08:50.501Z,949.83
2019-06-27T08:09:58.570Z,949.81
2019-06-27T08:11:06.619Z,949.78
2019-06-27T08:12:14.748Z,949.80
2019-06-27T08:13:22.776Z,949.79
2019-06-27T08:14:30.958Z,949.79
2019-06-27T08:15:38.924Z,949.78
2019-06-27T08:16:47.252Z,949.77
2019-06-27T08:17:55.120Z,949.76
2019-06-27T08:19:03.150Z,949.74
2019-06-27T08:20:11.227Z,949.74
2019-06-27T08:21:20.689Z,949.77
2019-06-27T08:22:28.773Z,949.76
2019-06-27T08:23:41.328Z,949.77
2019-06-27T08:24:44.938Z,949.76
2019-06-27T08:25:52.999Z,949.80
2019-06-27T08:27:01.058Z,949.80
2019-06-27T08:28:09.157Z,949.77
2019-06-27T08:29:17.226Z,949.78
2019-06-27T08:30:25.285Z,949.78
2019-06-27T08:31:33.374Z,949.72
2019-06-27T08:32:41.553Z,949.73
2019-06-27T08:33:49.616Z,949.75
2019-06-27T08:36:09.083Z,949.74
2019-06-27T08:37:17.171Z,949.74
2019-06-27T08:38:25.248Z,949.90
2019-06-27T08:39:33.428Z,949.86
2019-06-27T08:40:41.409Z,950.31
2019-06-27T08:41:49.453Z,950.41
2019-06-27T08:42:57.543Z,950.34
2019-06-27T08:44:05.598Z,950.16
2019-06-27T08:45:13.804Z,950.08
2019-06-27T08:46:21.780Z,949.90
2019-06-27T08:47:29.841Z,949.70
2019-06-27T08:48:38.424Z,949.72
2019-06-27T08:49:45.988Z,949.70
2019-06-27T08:50:54.167Z,950.03
2019-06-27T08:52:02.142Z,949.86
2019-06-27T08:53:10.241Z,949.76
2019-06-27T08:54:18.287Z,949.73
2019-06-27T08:55:26.370Z,949.85
2019-06-27T08:56:34.555Z,949.78
2019-06-27T08:57:42.543Z,950.23
2019-06-27T08:58:50.619Z,950.20
2019-06-27T08:59:58.706Z,949.99
2019-06-27T09:01:06.760Z,949.72
2019-06-27T09:02:14.956Z,949.70
2019-06-27T09:03:22.932Z,949.80
2019-06-27T09:04:31.102Z,949.81
2019-06-27T09:05:39.083Z,949.78
2019-06-27T09:06:47.162Z,949.95
2019-06-27T09:07:55.283Z,950.46
2019-06-27T09:09:03.329Z,950.54
2019-06-27T09:10:11.399Z,950.55
2019-06-27T09:11:19.483Z,950.58
2019-06-27T09:12:27.569Z,950.64
2019-06-27T09:13:35.637Z,950.62
2019-06-27T09:14:43.715Z,950.52
2019-06-27T09:15:51.794Z,950.61
2019-06-27T09:16:59.872Z,950.64
2019-06-27T09:18:09.260Z,950.64
2019-06-27T09:19:17.244Z,950.63
2019-06-27T09:20:25.411Z,950.66
2019-06-27T09:21:33.421Z,950.68
2019-06-27T09:22:41.608Z,950.66
2019-06-27T09:23:49.680Z,950.68
2019-06-27T09:24:57.660Z,950.69
2019-06-27T09:26:05.728Z,950.78
2019-06-27T09:27:13.831Z,950.91
2019-06-27T09:28:21.910Z,951.23
2019-06-27T09:29:30.089Z,951.54
2019-06-27T09:30:38.067Z,951.77
2019-06-27T09:31:46.139Z,951.91
2019-06-27T09:32:54.255Z,951.96
2019-06-27T09:34:02.335Z,951.92
2019-06-27T09:35:10.469Z,951.90
2019-06-27T09:36:18.528Z,951.79
2019-06-27T09:37:26.607Z,951.70
2019-06-27T09:38:37.153Z,951.63
2019-06-27T09:39:47.491Z,951.52
2019-06-27T09:40:55.492Z,951.48
2019-06-27T09:42:03.664Z,951.42
2019-06-27T09:43:11.669Z,951.42
2019-06-27T09:44:19.779Z,951.44
2019-06-27T09:45:27.945Z,951.51
2019-06-27T09:46:35.905Z,951.49
2019-06-27T09:47:44.017Z,951.49
2019-06-27T09:48:52.099Z,951.52
2019-06-27T09:50:00.200Z,951.61
2019-06-27T09:51:08.373Z,951.64
2019-06-27T09:52:16.379Z,951.63
2019-06-27T09:53:24.458Z,951.58
2019-06-27T09:54:32.558Z,951.53
2019-06-27T09:55:40.749Z,951.47
2019-06-27T09:56:48.841Z,951.45
2019-06-27T09:57:56.823Z,951.41
2019-06-27T09:59:04.918Z,951.37
2019-06-27T10:00:13.008Z,951.37
2019-06-27T10:01:21.084Z,951.35
2019-06-27T10:02:40.779Z,951.30
2019-06-27T10:03:37.279Z,951.28
2019-06-27T10:04:45.379Z,951.33
2019-06-27T10:05:53.469Z,951.31
2019-06-27T10:07:01.561Z,951.30
2019-06-27T10:08:09.737Z,951.25
2019-06-27T10:09:17.733Z,951.24
2019-06-27T10:10:25.822Z,951.24
2019-06-27T10:11:33.922Z,951.19
2019-06-27T10:12:43.233Z,951.15
2019-06-27T10:13:50.226Z,951.13
2019-06-27T10:14:58.257Z,951.16
2019-06-27T10:16:06.297Z,951.14
2019-06-27T10:17:14.378Z,951.08
2019-06-27T10:18:22.489Z,951.09
2019-06-27T10:19:30.670Z,951.08
2019-06-27T10:20:38.662Z,951.03
2019-06-27T10:21:46.759Z,951.00
2019-06-27T10:22:54.852Z,950.95
2019-06-27T10:24:02.957Z,950.97
2019-06-27T10:25:11.126Z,950.91
2019-06-27T10:26:19.120Z,950.88
2019-06-27T10:27:27.208Z,950.88
2019-06-27T10:28:35.361Z,950.87
2019-06-27T10:29:43.508Z,950.86
2019-06-27T10:30:51.625Z,950.83
2019-06-27T10:31:59.645Z,950.85
2019-06-27T10:33:07.686Z,950.79
2019-06-27T10:34:15.775Z,950.77
2019-06-27T10:35:23.881Z,950.77
2019-06-27T10:36:32.072Z,950.76
2019-06-27T10:37:40.070Z,950.75
2019-06-27T10:38:48.172Z,950.74
2019-06-27T10:39:56.233Z,950.76
2019-06-27T10:41:04.351Z,950.71
2019-06-27T10:42:12.537Z,950.72
2019-06-27T10:43:20.546Z,950.69
2019-06-27T10:44:28.639Z,950.70
2019-06-27T10:45:36.817Z,950.69
2019-06-27T10:46:44.832Z,950.65
2019-06-27T10:47:52.918Z,950.60
2019-06-27T10:49:01.005Z,950.61
2019-06-27T10:50:09.105Z,950.60
2019-06-27T10:51:17.204Z,950.64
2019-06-27T10:52:25.397Z,950.63
2019-06-27T10:53:33.388Z,950.63
2019-06-27T10:54:41.487Z,950.64
2019-06-27T10:55:49.565Z,950.63
2019-06-27T10:56:57.670Z,950.60
2019-06-27T10:58:05.968Z,950.61
2019-06-27T10:59:13.863Z,950.59
2019-06-27T11:00:21.960Z,950.56
2019-06-27T11:01:30.162Z,950.59
2019-06-27T11:02:38.256Z,950.62
2019-06-27T11:03:46.312Z,950.63
2019-06-27T11:04:54.354Z,950.63
2019-06-27T11:06:02.435Z,950.60
2019-06-27T11:07:10.583Z,950.59
2019-06-27T11:08:18.626Z,950.56
2019-06-27T11:09:26.758Z,950.54
2019-06-27T11:10:34.812Z,950.51
2019-06-27T11:11:42.917Z,950.45
2019-06-27T11:12:50.999Z,950.44
2019-06-27T11:13:59.578Z,950.44
2019-06-27T11:15:07.291Z,950.45
2019-06-27T11:16:15.301Z,950.44
2019-06-27T11:17:23.380Z,950.40
2019-06-27T11:18:31.531Z,950.40
2019-06-27T11:19:51.707Z,950.39
2019-06-27T11:20:47.723Z,950.35
2019-06-27T11:21:55.752Z,950.01
2019-06-27T11:23:03.864Z,950.32
2019-06-27T11:24:11.972Z,950.34
2019-06-27T11:25:20.063Z,950.39
2019-06-27T11:26:28.232Z,950.36
2019-06-27T11:27:36.247Z,950.32
2019-06-27T11:28:44.340Z,950.31
2019-06-27T11:29:52.446Z,950.29
2019-06-27T11:31:00.648Z,950.22
2019-06-27T11:32:08.664Z,950.04
2019-06-27T11:33:28.205Z,950.00
2019-06-27T11:34:24.832Z,949.98
2019-06-27T11:35:33.002Z,949.98
2019-06-27T11:36:41.214Z,949.42
2019-06-27T11:37:49.112Z,950.11
2019-06-27T11:38:57.190Z,949.50
2019-06-27T11:40:05.335Z,949.25
2019-06-27T11:41:13.419Z,949.28
2019-06-27T11:42:21.591Z,949.65
2019-06-27T11:43:29.565Z,949.55
2019-06-27T11:44:37.666Z,949.45
2019-06-27T11:45:45.743Z,950.23
2019-06-27T11:46:53.855Z,950.14
2019-06-27T11:48:02.079Z,950.17
2019-06-27T11:49:10.032Z,950.19
2019-06-27T11:50:18.133Z,949.34
2019-06-27T11:51:26.258Z,950.09
2019-06-27T11:52:34.509Z,950.07
2019-06-27T11:53:42.446Z,950.06
2019-06-27T11:54:50.519Z,949.96
2019-06-27T11:55:58.592Z,949.93
2019-06-27T11:57:06.692Z,949.95
2019-06-27T11:58:14.917Z,949.90
2019-06-27T11:59:22.907Z,949.89
2019-06-27T12:00:30.948Z,949.86
2019-06-27T12:01:39.051Z,949.87
2019-06-27T12:02:47.153Z,949.85
2019-06-27T12:03:55.232Z,948.98
2019-06-27T12:05:03.419Z,949.88
2019-06-27T12:06:11.411Z,949.83
2019-06-27T12:07:19.510Z,949.84
2019-06-27T12:08:27.688Z,949.89
2019-06-27T12:09:35.660Z,949.85
2019-06-27T12:10:43.829Z,949.83
2019-06-27T12:11:51.906Z,949.84
2019-06-27T12:12:59.993Z,949.87
2019-06-27T12:14:08.101Z,949.88
2019-06-27T12:15:16.134Z,949.84
2019-06-27T12:16:24.254Z,949.79
2019-06-27T12:17:32.313Z,949.44
2019-06-27T12:18:40.436Z,949.19
2019-06-27T12:19:48.546Z,949.16
2019-06-27T12:20:56.723Z,949.24
2019-06-27T12:22:04.702Z,949.24
2019-06-27T12:23:12.790Z,949.23
2019-06-27T12:24:20.973Z,949.23
2019-06-27T12:25:29.067Z,949.28
2019-06-27T12:26:37.187Z,949.23
2019-06-27T12:27:45.152Z,949.19
2019-06-27T12:28:53.244Z,949.22
2019-06-27T12:30:01.331Z,949.23
2019-06-27T12:31:19.693Z,949.20
2019-06-27T12:32:17.586Z,949.30
2019-06-27T12:33:25.575Z,949.31
2019-06-27T12:34:33.680Z,949.25
2019-06-27T12:35:41.771Z,949.26
2019-06-27T12:36:49.864Z,949.29
2019-06-27T12:37:57.990Z,949.34
2019-06-27T12:39:05.991Z,949.29
2019-06-27T12:40:14.124Z,949.30
2019-06-27T12:41:22.244Z,949.35
2019-06-27T12:42:32.579Z,949.35
2019-06-27T12:43:38.420Z,949.33
2019-06-27T12:44:46.420Z,949.26
2019-06-27T12:45:54.558Z,949.27
2019-06-27T12:47:02.627Z,949.29
2019-06-27T12:48:10.695Z,949.33
2019-06-27T12:49:18.835Z,949.28
2019-06-27T12:50:26.897Z,949.26
2019-06-27T12:51:34.950Z,949.23
2019-06-27T12:52:43.045Z,949.24
2019-06-27T12:53:51.125Z,949.17
2019-06-27T12:54:59.238Z,949.17
2019-06-27T12:56:07.290Z,949.20
2019-06-27T12:57:15.377Z,949.15
2019-06-27T12:58:23.553Z,949.09
2019-06-27T12:59:31.549Z,949.13
2019-06-27T13:00:39.720Z,949.10
2019-06-27T13:01:47.715Z,949.14
2019-06-27T13:02:55.775Z,949.10
2019-06-27T13:04:03.864Z,949.11
2019-06-27T13:05:11.997Z,949.11
2019-06-27T13:06:20.172Z,949.20
2019-06-27T13:07:28.110Z,949.20
2019-06-27T13:08:36.176Z,949.17
2019-06-27T13:09:44.276Z,949.12
2019-06-27T13:10:52.465Z,949.12
2019-06-27T13:12:00.452Z,949.16
2019-06-27T13:13:08.517Z,949.09
2019-06-27T13:14:16.646Z,949.08
2019-06-27T13:15:24.775Z,949.07
2019-06-27T13:16:32.874Z,949.08
2019-06-27T13:17:40.858Z,949.11
2019-06-27T13:18:48.932Z,949.09
2019-06-27T13:19:57.030Z,949.12
2019-06-27T13:21:05.097Z,949.10
2019-06-27T13:22:13.272Z,949.16
2019-06-27T13:23:21.243Z,949.16
2019-06-27T13:24:29.317Z,949.18
2019-06-27T13:25:37.402Z,949.20
2019-06-27T13:26:45.483Z,949.15
2019-06-27T13:27:53.632Z,949.12
2019-06-27T13:29:01.699Z,949.11
2019-06-27T13:30:09.780Z,949.09
2019-06-27T13:31:17.923Z,949.11
2019-06-27T13:32:25.927Z,949.11
2019-06-27T13:33:34.053Z,949.07
2019-06-27T13:34:42.104Z,949.05
2019-06-27T13:35:50.143Z,949.06
2019-06-27T13:36:58.226Z,948.99
2019-06-27T13:38:06.319Z,948.99
2019-06-27T13:39:14.476Z,948.94
2019-06-27T13:40:22.458Z,949.00
2019-06-27T13:41:30.585Z,948.96
2019-06-27T13:42:38.860Z,948.90
2019-06-27T13:43:49.205Z,948.93
2019-06-27T13:44:54.855Z,948.94
2019-06-27T13:46:02.883Z,948.96
2019-06-27T13:47:10.950Z,948.95
2019-06-27T13:48:19.125Z,948.94
2019-06-27T13:49:27.140Z,948.90
2019-06-27T13:50:35.290Z,948.88
2019-06-27T13:51:43.273Z,948.86
2019-06-27T13:52:54.583Z,948.86
2019-06-27T13:53:59.453Z,948.85
2019-06-27T13:55:07.587Z,948.83
2019-06-27T13:56:15.570Z,948.82
2019-06-27T13:57:23.675Z,948.78
2019-06-27T13:58:31.741Z,948.75
2019-06-27T13:59:39.831Z,948.71
2019-06-27T14:00:48.001Z,948.72
2019-06-27T14:01:55.971Z,948.77
2019-06-27T14:03:04.064Z,948.75
2019-06-27T14:04:12.271Z,948.77
2019-06-27T14:05:20.326Z,948.74
2019-06-27T14:06:28.441Z,948.72
2019-06-27T14:07:36.370Z,948.73
2019-06-27T14:08:44.467Z,948.73
2019-06-27T14:09:55.797Z,948.71
2019-06-27T14:11:00.750Z,948.70
2019-06-27T14:12:08.721Z,948.66
2019-06-27T14:13:16.754Z,948.64
2019-06-27T14:14:24.851Z,948.64
2019-06-27T14:15:32.941Z,948.63
2019-06-27T14:16:41.015Z,948.66
2019-06-27T14:17:49.096Z,948.63
2019-06-27T14:18:57.163Z,948.61
2019-06-27T14:20:05.249Z,948.62